Lorton, Virginia
Current Conditions -  °F | °C
As of 4:58 AM on Saturday 29 Nov 2014 (Local Time) from KDAA Reporting Station
Few Clouds Few Clouds  
Wind Chill: 28°   Ceiling: Unl
Heat Index: 28°   Visibility: 10mi
Dew Point: 25°   Wind: 0mph
Humidity: 88%   Direction: NA
Pressure: 30.33"   Gusts: NA
Location:  38.7°N, 77.21°W
Report Text: KDAA 290958Z AUTO 00000KT 10SM FEW085 M02/M04 A3033 RMK AO2 SLP275 T10201037
Loading
Personal Weather Stations






























Interactive Weather Map New forecast layout! Learn more

10-Day Weather Forecast

Advertisements
Track Severe Weather on mobile